sensor_id;sensor_type;location;lat;lon;timestamp;temperature;humidity
10662;DHT22;5379;51.034;7.006;2022-11-15T00:01:18;13.70;99.90
10662;DHT22;5379;51.034;7.006;2022-11-15T00:03:46;13.70;99.90
10662;DHT22;5379;51.034;7.006;2022-11-15T00:06:13;13.70;99.90
10662;DHT22;5379;51.034;7.006;2022-11-15T00:08:40;13.80;99.90
10662;DHT22;5379;51.034;7.006;2022-11-15T00:11:10;13.80;99.90
10662;DHT22;5379;51.034;7.006;2022-11-15T00:13:39;13.80;99.90
10662;DHT22;5379;51.034;7.006;2022-11-15T00:16:06;13.90;99.90
10662;DHT22;5379;51.034;7.006;2022-11-15T00:18:34;13.90;99.90
10662;DHT22;5379;51.034;7.006;2022-11-15T00:21:05;13.90;99.90
10662;DHT22;5379;51.034;7.006;2022-11-15T00:23:33;13.90;99.90
10662;DHT22;5379;51.034;7.006;2022-11-15T00:26:00;13.90;99.90
10662;DHT22;5379;51.034;7.006;2022-11-15T00:28:27;14.00;99.90
10662;DHT22;5379;51.034;7.006;2022-11-15T00:31:00;14.00;99.90
10662;DHT22;5379;51.034;7.006;2022-11-15T00:33:27;14.10;99.90
10662;DHT22;5379;51.034;7.006;2022-11-15T00:35:59;14.20;99.90
10662;DHT22;5379;51.034;7.006;2022-11-15T00:38:30;14.20;99.90
10662;DHT22;5379;51.034;7.006;2022-11-15T00:40:57;14.30;99.90
10662;DHT22;5379;51.034;7.006;2022-11-15T00:43:24;14.30;99.90
10662;DHT22;5379;51.034;7.006;2022-11-15T00:45:51;14.30;99.90
10662;DHT22;5379;51.034;7.006;2022-11-15T00:48:20;14.30;99.90
10662;DHT22;5379;51.034;7.006;2022-11-15T00:50:48;14.30;99.90
10662;DHT22;5379;51.034;7.006;2022-11-15T00:53:15;14.40;99.90
10662;DHT22;5379;51.034;7.006;2022-11-15T00:55:42;14.40;99.90
10662;DHT22;5379;51.034;7.006;2022-11-15T00:58:09;14.40;99.90
10662;DHT22;5379;51.034;7.006;2022-11-15T01:00:36;14.40;99.90
10662;DHT22;5379;51.034;7.006;2022-11-15T01:03:03;14.40;99.90
10662;DHT22;5379;51.034;7.006;2022-11-15T01:05:32;14.50;99.90
10662;DHT22;5379;51.034;7.006;2022-11-15T01:07:59;14.50;99.90
10662;DHT22;5379;51.034;7.006;2022-11-15T01:10:26;14.50;99.90
10662;DHT22;5379;51.034;7.006;2022-11-15T01:12:53;14.50;99.90
10662;DHT22;5379;51.034;7.006;2022-11-15T01:15:20;14.60;99.90
10662;DHT22;5379;51.034;7.006;2022-11-15T01:17:47;14.60;99.90
10662;DHT22;5379;51.034;7.006;2022-11-15T01:20:14;14.60;99.90
10662;DHT22;5379;51.034;7.006;2022-11-15T01:22:42;14.60;99.90
10662;DHT22;5379;51.034;7.006;2022-11-15T01:25:09;14.60;99.90
10662;DHT22;5379;51.034;7.006;2022-11-15T01:27:36;14.70;99.90
10662;DHT22;5379;51.034;7.006;2022-11-15T01:30:04;14.70;99.90
10662;DHT22;5379;51.034;7.006;2022-11-15T01:32:31;14.60;99.90
10662;DHT22;5379;51.034;7.006;2022-11-15T01:34:58;14.70;99.90
10662;DHT22;5379;51.034;7.006;2022-11-15T01:37:25;14.70;99.90
10662;DHT22;5379;51.034;7.006;2022-11-15T01:39:54;14.70;99.90
10662;DHT22;5379;51.034;7.006;2022-11-15T01:42:20;14.80;99.90
10662;DHT22;5379;51.034;7.006;2022-11-15T01:44:49;14.90;99.90
10662;DHT22;5379;51.034;7.006;2022-11-15T01:47:20;14.90;99.90
10662;DHT22;5379;51.034;7.006;2022-11-15T01:49:52;15.00;99.90
10662;DHT22;5379;51.034;7.006;2022-11-15T01:52:22;15.00;99.90
10662;DHT22;5379;51.034;7.006;2022-11-15T01:54:55;15.00;99.90
10662;DHT22;5379;51.034;7.006;2022-11-15T01:57:23;15.00;99.90
10662;DHT22;5379;51.034;7.006;2022-11-15T01:59:50;15.00;99.90
10662;DHT22;5379;51.034;7.006;2022-11-15T02:02:17;15.10;99.90
10662;DHT22;5379;51.034;7.006;2022-11-15T02:04:45;15.10;99.90
10662;DHT22;5379;51.034;7.006;2022-11-15T02:07:15;15.20;99.90
10662;DHT22;5379;51.034;7.006;2022-11-15T02:09:44;15.20;99.90
10662;DHT22;5379;51.034;7.006;2022-11-15T02:12:15;15.20;99.90
10662;DHT22;5379;51.034;7.006;2022-11-15T02:14:48;15.30;99.90
10662;DHT22;5379;51.034;7.006;2022-11-15T02:17:28;15.30;99.90
10662;DHT22;5379;51.034;7.006;2022-11-15T02:26:42;15.30;99.90
10662;DHT22;5379;51.034;7.006;2022-11-15T02:29:26;15.30;99.90
10662;DHT22;5379;51.034;7.006;2022-11-15T02:32:02;15.30;99.90
10662;DHT22;5379;51.034;7.006;2022-11-15T02:34:38;15.40;99.90
10662;DHT22;5379;51.034;7.006;2022-11-15T02:37:14;15.40;99.90
10662;DHT22;5379;51.034;7.006;2022-11-15T02:39:46;15.40;99.90
10662;DHT22;5379;51.034;7.006;2022-11-15T02:42:21;15.40;99.90
10662;DHT22;5379;51.034;7.006;2022-11-15T02:45:10;15.30;99.90
10662;DHT22;5379;51.034;7.006;2022-11-15T02:47:43;15.40;99.90
10662;DHT22;5379;51.034;7.006;2022-11-15T02:50:13;15.30;99.90
10662;DHT22;5379;51.034;7.006;2022-11-15T02:52:45;15.40;99.90
10662;DHT22;5379;51.034;7.006;2022-11-15T02:55:29;15.40;99.90
10662;DHT22;5379;51.034;7.006;2022-11-15T02:58:08;15.30;99.90
10662;DHT22;5379;51.034;7.006;2022-11-15T03:00:43;15.10;99.90
10662;DHT22;5379;51.034;7.006;2022-11-15T03:06:15;14.80;99.90
10662;DHT22;5379;51.034;7.006;2022-11-15T03:08:54;14.70;99.90
10662;DHT22;5379;51.034;7.006;2022-11-15T03:11:24;14.80;99.90
10662;DHT22;5379;51.034;7.006;2022-11-15T03:13:55;14.70;99.90
10662;DHT22;5379;51.034;7.006;2022-11-15T03:16:27;14.70;99.90
10662;DHT22;5379;51.034;7.006;2022-11-15T03:19:00;14.80;99.90
10662;DHT22;5379;51.034;7.006;2022-11-15T03:21:31;14.90;99.90
10662;DHT22;5379;51.034;7.006;2022-11-15T03:24:01;15.00;99.90
10662;DHT22;5379;51.034;7.006;2022-11-15T03:26:29;15.00;99.90
10662;DHT22;5379;51.034;7.006;2022-11-15T03:29:02;15.10;99.90
10662;DHT22;5379;51.034;7.006;2022-11-15T03:31:33;15.10;99.90
10662;DHT22;5379;51.034;7.006;2022-11-15T03:34:22;15.20;99.90
10662;DHT22;5379;51.034;7.006;2022-11-15T03:36:51;15.20;99.90
10662;DHT22;5379;51.034;7.006;2022-11-15T03:39:20;15.20;99.90
10662;DHT22;5379;51.034;7.006;2022-11-15T03:41:50;15.20;99.90
10662;DHT22;5379;51.034;7.006;2022-11-15T03:44:27;15.30;99.90
10662;DHT22;5379;51.034;7.006;2022-11-15T03:47:03;15.30;99.90
10662;DHT22;5379;51.034;7.006;2022-11-15T03:49:33;15.30;99.90
10662;DHT22;5379;51.034;7.006;2022-11-15T03:52:02;15.30;99.90
10662;DHT22;5379;51.034;7.006;2022-11-15T03:54:30;15.30;99.90
10662;DHT22;5379;51.034;7.006;2022-11-15T03:56:57;15.30;99.90
10662;DHT22;5379;51.034;7.006;2022-11-15T03:59:24;15.20;99.90
10662;DHT22;5379;51.034;7.006;2022-11-15T04:01:51;15.20;99.90
10662;DHT22;5379;51.034;7.006;2022-11-15T04:04:18;15.00;99.90
10662;DHT22;5379;51.034;7.006;2022-11-15T04:06:46;15.00;99.90
10662;DHT22;5379;51.034;7.006;2022-11-15T04:09:13;14.90;99.90
10662;DHT22;5379;51.034;7.006;2022-11-15T04:11:40;14.90;99.90
10662;DHT22;5379;51.034;7.006;2022-11-15T04:14:07;14.90;99.90
10662;DHT22;5379;51.034;7.006;2022-11-15T04:16:34;14.90;99.90
10662;DHT22;5379;51.034;7.006;2022-11-15T04:19:01;14.90;99.90
10662;DHT22;5379;51.034;7.006;2022-11-15T04:21:47;14.90;99.90
10662;DHT22;5379;51.034;7.006;2022-11-15T04:24:31;14.80;99.90
10662;DHT22;5379;51.034;7.006;2022-11-15T04:26:58;14.80;99.90
10662;DHT22;5379;51.034;7.006;2022-11-15T04:29:26;14.90;99.90
10662;DHT22;5379;51.034;7.006;2022-11-15T04:32:02;15.10;99.90
10662;DHT22;5379;51.034;7.006;2022-11-15T04:34:30;15.20;99.90
10662;DHT22;5379;51.034;7.006;2022-11-15T04:36:58;15.30;99.90
10662;DHT22;5379;51.034;7.006;2022-11-15T04:39:42;15.30;99.90
10662;DHT22;5379;51.034;7.006;2022-11-15T04:42:09;15.40;99.90
10662;DHT22;5379;51.034;7.006;2022-11-15T04:44:36;15.50;99.90
10662;DHT22;5379;51.034;7.006;2022-11-15T04:47:04;15.50;99.90
10662;DHT22;5379;51.034;7.006;2022-11-15T04:49:31;15.30;99.90
10662;DHT22;5379;51.034;7.006;2022-11-15T04:52:00;15.30;99.90
10662;DHT22;5379;51.034;7.006;2022-11-15T04:54:27;15.30;99.90
10662;DHT22;5379;51.034;7.006;2022-11-15T04:56:54;15.40;99.90
10662;DHT22;5379;51.034;7.006;2022-11-15T04:59:21;15.50;99.90
10662;DHT22;5379;51.034;7.006;2022-11-15T05:01:48;15.60;99.90
10662;DHT22;5379;51.034;7.006;2022-11-15T05:04:15;15.60;99.90
10662;DHT22;5379;51.034;7.006;2022-11-15T05:06:48;15.70;99.90
10662;DHT22;5379;51.034;7.006;2022-11-15T05:09:16;15.70;99.90
10662;DHT22;5379;51.034;7.006;2022-11-15T05:11:43;15.70;99.90
10662;DHT22;5379;51.034;7.006;2022-11-15T05:14:10;15.70;99.90
10662;DHT22;5379;51.034;7.006;2022-11-15T05:16:38;15.60;99.90
10662;DHT22;5379;51.034;7.006;2022-11-15T05:19:05;15.40;99.90
10662;DHT22;5379;51.034;7.006;2022-11-15T05:21:33;15.30;99.90
10662;DHT22;5379;51.034;7.006;2022-11-15T05:24:01;15.40;99.90
10662;DHT22;5379;51.034;7.006;2022-11-15T05:26:29;15.50;99.90
10662;DHT22;5379;51.034;7.006;2022-11-15T05:28:57;15.50;99.90
10662;DHT22;5379;51.034;7.006;2022-11-15T05:31:26;15.50;99.90
10662;DHT22;5379;51.034;7.006;2022-11-15T05:33:54;15.60;99.90
10662;DHT22;5379;51.034;7.006;2022-11-15T05:36:28;15.60;99.90
10662;DHT22;5379;51.034;7.006;2022-11-15T05:38:56;15.70;99.90
10662;DHT22;5379;51.034;7.006;2022-11-15T05:41:26;15.70;99.90
10662;DHT22;5379;51.034;7.006;2022-11-15T05:44:00;15.60;99.90
10662;DHT22;5379;51.034;7.006;2022-11-15T05:46:28;15.60;99.90
10662;DHT22;5379;51.034;7.006;2022-11-15T05:48:56;15.60;99.90
10662;DHT22;5379;51.034;7.006;2022-11-15T05:51:24;15.40;99.90
10662;DHT22;5379;51.034;7.006;2022-11-15T05:53:56;15.40;99.90
10662;DHT22;5379;51.034;7.006;2022-11-15T05:56:23;15.40;99.90
10662;DHT22;5379;51.034;7.006;2022-11-15T05:58:52;15.40;99.90
10662;DHT22;5379;51.034;7.006;2022-11-15T06:01:20;15.40;99.90
10662;DHT22;5379;51.034;7.006;2022-11-15T06:03:48;15.50;99.90
10662;DHT22;5379;51.034;7.006;2022-11-15T06:06:14;15.50;99.90
10662;DHT22;5379;51.034;7.006;2022-11-15T06:08:41;15.40;99.90
10662;DHT22;5379;51.034;7.006;2022-11-15T06:11:08;15.50;99.90
10662;DHT22;5379;51.034;7.006;2022-11-15T06:13:35;15.50;99.90
10662;DHT22;5379;51.034;7.006;2022-11-15T06:16:03;15.40;99.90
10662;DHT22;5379;51.034;7.006;2022-11-15T06:18:33;15.40;99.90
10662;DHT22;5379;51.034;7.006;2022-11-15T06:21:01;15.20;99.90
10662;DHT22;5379;51.034;7.006;2022-11-15T06:23:30;15.00;99.90
10662;DHT22;5379;51.034;7.006;2022-11-15T06:25:58;15.00;99.90
10662;DHT22;5379;51.034;7.006;2022-11-15T06:28:28;15.00;99.90
10662;DHT22;5379;51.034;7.006;2022-11-15T06:30:55;15.00;99.90
10662;DHT22;5379;51.034;7.006;2022-11-15T06:33:22;15.10;99.90
10662;DHT22;5379;51.034;7.006;2022-11-15T06:35:51;15.00;99.90
10662;DHT22;5379;51.034;7.006;2022-11-15T06:38:18;15.10;99.90
10662;DHT22;5379;51.034;7.006;2022-11-15T06:40:45;15.00;99.90
10662;DHT22;5379;51.034;7.006;2022-11-15T06:43:12;15.00;99.90
10662;DHT22;5379;51.034;7.006;2022-11-15T06:45:40;15.00;99.90
10662;DHT22;5379;51.034;7.006;2022-11-15T06:48:07;14.80;99.90
10662;DHT22;5379;51.034;7.006;2022-11-15T06:50:34;14.80;99.90
10662;DHT22;5379;51.034;7.006;2022-11-15T06:53:03;14.80;99.90
10662;DHT22;5379;51.034;7.006;2022-11-15T06:55:30;14.80;99.90
10662;DHT22;5379;51.034;7.006;2022-11-15T06:57:57;14.90;99.90
10662;DHT22;5379;51.034;7.006;2022-11-15T07:00:24;14.90;99.90
10662;DHT22;5379;51.034;7.006;2022-11-15T07:02:51;14.90;99.90
10662;DHT22;5379;51.034;7.006;2022-11-15T07:05:18;14.80;99.90
10662;DHT22;5379;51.034;7.006;2022-11-15T07:07:51;14.80;99.90
10662;DHT22;5379;51.034;7.006;2022-11-15T07:10:20;14.90;99.90
10662;DHT22;5379;51.034;7.006;2022-11-15T07:12:49;14.80;99.90
10662;DHT22;5379;51.034;7.006;2022-11-15T07:15:17;14.60;99.90
10662;DHT22;5379;51.034;7.006;2022-11-15T07:17:45;14.50;99.90
10662;DHT22;5379;51.034;7.006;2022-11-15T07:20:13;14.50;99.90
10662;DHT22;5379;51.034;7.006;2022-11-15T07:22:40;14.50;99.90
10662;DHT22;5379;51.034;7.006;2022-11-15T07:25:08;14.60;99.90
10662;DHT22;5379;51.034;7.006;2022-11-15T07:27:37;14.60;99.90
10662;DHT22;5379;51.034;7.006;2022-11-15T07:30:05;14.70;99.90
10662;DHT22;5379;51.034;7.006;2022-11-15T07:32:32;14.60;99.90
10662;DHT22;5379;51.034;7.006;2022-11-15T07:34:59;14.60;99.90
10662;DHT22;5379;51.034;7.006;2022-11-15T07:37:26;14.70;99.90
10662;DHT22;5379;51.034;7.006;2022-11-15T07:39:53;14.70;99.90
10662;DHT22;5379;51.034;7.006;2022-11-15T07:42:20;14.60;99.90
10662;DHT22;5379;51.034;7.006;2022-11-15T07:45:05;14.40;99.90
10662;DHT22;5379;51.034;7.006;2022-11-15T07:47:32;14.40;99.90
10662;DHT22;5379;51.034;7.006;2022-11-15T07:49:59;14.40;99.90
10662;DHT22;5379;51.034;7.006;2022-11-15T07:52:27;14.50;99.90
10662;DHT22;5379;51.034;7.006;2022-11-15T07:54:54;14.60;99.90
10662;DHT22;5379;51.034;7.006;2022-11-15T07:57:20;14.60;99.90
10662;DHT22;5379;51.034;7.006;2022-11-15T07:59:47;14.70;99.90
10662;DHT22;5379;51.034;7.006;2022-11-15T08:02:16;14.70;99.90
10662;DHT22;5379;51.034;7.006;2022-11-15T08:04:43;14.80;99.90
10662;DHT22;5379;51.034;7.006;2022-11-15T08:07:10;14.80;99.90
10662;DHT22;5379;51.034;7.006;2022-11-15T08:09:37;14.70;99.90
10662;DHT22;5379;51.034;7.006;2022-11-15T08:12:04;14.50;99.90
10662;DHT22;5379;51.034;7.006;2022-11-15T08:14:32;14.50;99.90
10662;DHT22;5379;51.034;7.006;2022-11-15T08:16:59;14.50;99.90
10662;DHT22;5379;51.034;7.006;2022-11-15T08:19:28;14.60;99.90
10662;DHT22;5379;51.034;7.006;2022-11-15T08:21:55;14.50;99.90
10662;DHT22;5379;51.034;7.006;2022-11-15T08:24:22;14.60;99.90
10662;DHT22;5379;51.034;7.006;2022-11-15T08:26:49;14.60;99.90
10662;DHT22;5379;51.034;7.006;2022-11-15T08:29:17;14.60;99.90
10662;DHT22;5379;51.034;7.006;2022-11-15T08:31:44;14.70;99.90
10662;DHT22;5379;51.034;7.006;2022-11-15T08:34:12;14.80;99.90
10662;DHT22;5379;51.034;7.006;2022-11-15T08:36:41;14.70;99.90
10662;DHT22;5379;51.034;7.006;2022-11-15T08:39:10;14.60;99.90
10662;DHT22;5379;51.034;7.006;2022-11-15T08:41:38;14.60;99.90
10662;DHT22;5379;51.034;7.006;2022-11-15T08:44:05;14.70;99.90
10662;DHT22;5379;51.034;7.006;2022-11-15T08:46:32;14.70;99.90
10662;DHT22;5379;51.034;7.006;2022-11-15T08:48:59;14.80;99.90
10662;DHT22;5379;51.034;7.006;2022-11-15T08:51:26;14.90;99.90
10662;DHT22;5379;51.034;7.006;2022-11-15T08:53:55;15.00;99.90
10662;DHT22;5379;51.034;7.006;2022-11-15T08:56:22;15.00;99.90
10662;DHT22;5379;51.034;7.006;2022-11-15T08:58:49;15.10;99.90
10662;DHT22;5379;51.034;7.006;2022-11-15T09:01:18;15.20;99.90
10662;DHT22;5379;51.034;7.006;2022-11-15T09:03:46;15.20;99.90
10662;DHT22;5379;51.034;7.006;2022-11-15T09:06:13;15.00;99.90
10662;DHT22;5379;51.034;7.006;2022-11-15T09:08:41;14.90;99.90
10662;DHT22;5379;51.034;7.006;2022-11-15T09:11:12;15.00;99.90
10662;DHT22;5379;51.034;7.006;2022-11-15T09:13:40;15.10;99.90
10662;DHT22;5379;51.034;7.006;2022-11-15T09:16:07;15.20;99.90
10662;DHT22;5379;51.034;7.006;2022-11-15T09:18:34;15.20;99.90
10662;DHT22;5379;51.034;7.006;2022-11-15T09:21:01;15.40;99.90
10662;DHT22;5379;51.034;7.006;2022-11-15T09:23:29;15.40;99.90
10662;DHT22;5379;51.034;7.006;2022-11-15T09:25:59;15.50;99.90
10662;DHT22;5379;51.034;7.006;2022-11-15T09:28:28;15.50;99.90
10662;DHT22;5379;51.034;7.006;2022-11-15T09:31:00;15.60;99.90
10662;DHT22;5379;51.034;7.006;2022-11-15T09:33:28;15.70;99.90
10662;DHT22;5379;51.034;7.006;2022-11-15T09:35:59;15.70;99.90
10662;DHT22;5379;51.034;7.006;2022-11-15T09:38:26;15.60;99.90
10662;DHT22;5379;51.034;7.006;2022-11-15T09:43:59;15.80;99.90
10662;DHT22;5379;51.034;7.006;2022-11-15T09:46:38;15.90;99.90
10662;DHT22;5379;51.034;7.006;2022-11-15T09:49:14;15.90;99.90
10662;DHT22;5379;51.034;7.006;2022-11-15T09:51:44;15.90;99.90
10662;DHT22;5379;51.034;7.006;2022-11-15T09:54:21;16.50;99.90
10662;DHT22;5379;51.034;7.006;2022-11-15T09:56:52;16.20;99.90
10662;DHT22;5379;51.034;7.006;2022-11-15T09:59:49;16.20;99.90
10662;DHT22;5379;51.034;7.006;2022-11-15T10:02:38;16.30;99.90
10662;DHT22;5379;51.034;7.006;2022-11-15T10:05:12;16.40;99.90
10662;DHT22;5379;51.034;7.006;2022-11-15T10:07:46;16.10;99.90
10662;DHT22;5379;51.034;7.006;2022-11-15T10:10:22;15.90;99.90
10662;DHT22;5379;51.034;7.006;2022-11-15T10:12:54;15.90;99.90
10662;DHT22;5379;51.034;7.006;2022-11-15T10:18:52;16.00;99.90
10662;DHT22;5379;51.034;7.006;2022-11-15T10:21:25;16.10;99.90
10662;DHT22;5379;51.034;7.006;2022-11-15T10:23:55;16.10;99.90
10662;DHT22;5379;51.034;7.006;2022-11-15T10:26:23;16.20;99.90
10662;DHT22;5379;51.034;7.006;2022-11-15T10:28:53;16.20;99.90
10662;DHT22;5379;51.034;7.006;2022-11-15T10:31:23;16.40;99.90
10662;DHT22;5379;51.034;7.006;2022-11-15T10:37:13;16.60;99.90
10662;DHT22;5379;51.034;7.006;2022-11-15T10:40:03;16.40;99.90
10662;DHT22;5379;51.034;7.006;2022-11-15T10:42:38;16.40;99.90
10662;DHT22;5379;51.034;7.006;2022-11-15T10:45:26;16.40;99.90
10662;DHT22;5379;51.034;7.006;2022-11-15T10:48:21;16.50;99.90
10662;DHT22;5379;51.034;7.006;2022-11-15T10:50:52;16.60;99.90
10662;DHT22;5379;51.034;7.006;2022-11-15T10:53:29;16.60;99.90
10662;DHT22;5379;51.034;7.006;2022-11-15T10:56:00;16.70;99.90
10662;DHT22;5379;51.034;7.006;2022-11-15T10:58:37;16.70;99.90
10662;DHT22;5379;51.034;7.006;2022-11-15T11:01:14;16.80;99.90
10662;DHT22;5379;51.034;7.006;2022-11-15T11:03:43;16.90;99.60
10662;DHT22;5379;51.034;7.006;2022-11-15T11:06:17;16.80;98.80
10662;DHT22;5379;51.034;7.006;2022-11-15T11:09:09;16.80;98.90
10662;DHT22;5379;51.034;7.006;2022-11-15T11:12:03;16.50;98.20
10662;DHT22;5379;51.034;7.006;2022-11-15T11:14:39;16.70;99.10
10662;DHT22;5379;51.034;7.006;2022-11-15T11:17:23;16.80;98.00
10662;DHT22;5379;51.034;7.006;2022-11-15T11:20:22;16.90;98.50
10662;DHT22;5379;51.034;7.006;2022-11-15T11:23:27;16.90;97.90
10662;DHT22;5379;51.034;7.006;2022-11-15T11:26:08;17.00;97.40
10662;DHT22;5379;51.034;7.006;2022-11-15T11:28:42;17.10;97.70
10662;DHT22;5379;51.034;7.006;2022-11-15T11:31:20;17.10;98.00
10662;DHT22;5379;51.034;7.006;2022-11-15T11:33:59;16.50;97.60
10662;DHT22;5379;51.034;7.006;2022-11-15T11:36:36;17.20;97.30
10662;DHT22;5379;51.034;7.006;2022-11-15T11:39:21;17.20;96.80
10662;DHT22;5379;51.034;7.006;2022-11-15T11:41:57;17.00;97.10
10662;DHT22;5379;51.034;7.006;2022-11-15T11:44:33;16.80;97.70
10662;DHT22;5379;51.034;7.006;2022-11-15T11:47:01;16.90;97.80
10662;DHT22;5379;51.034;7.006;2022-11-15T11:49:34;16.90;98.10
10662;DHT22;5379;51.034;7.006;2022-11-15T11:52:10;17.30;98.60
10662;DHT22;5379;51.034;7.006;2022-11-15T11:54:53;17.40;97.60
10662;DHT22;5379;51.034;7.006;2022-11-15T11:57:28;17.40;97.60
10662;DHT22;5379;51.034;7.006;2022-11-15T12:00:09;17.60;97.70
10662;DHT22;5379;51.034;7.006;2022-11-15T12:02:42;17.50;97.60
10662;DHT22;5379;51.034;7.006;2022-11-15T12:05:13;17.50;97.30
10662;DHT22;5379;51.034;7.006;2022-11-15T12:07:43;16.30;97.20
10662;DHT22;5379;51.034;7.006;2022-11-15T12:10:22;17.30;97.60
10662;DHT22;5379;51.034;7.006;2022-11-15T12:12:58;17.40;97.90
10662;DHT22;5379;51.034;7.006;2022-11-15T12:15:31;17.60;97.70
10662;DHT22;5379;51.034;7.006;2022-11-15T12:21:36;17.60;97.90
10662;DHT22;5379;51.034;7.006;2022-11-15T12:24:23;18.10;97.70
10662;DHT22;5379;51.034;7.006;2022-11-15T12:47:43;17.90;97.80
10662;DHT22;5379;51.034;7.006;2022-11-15T12:50:12;18.10;98.40
10662;DHT22;5379;51.034;7.006;2022-11-15T12:56:09;18.50;97.60
10662;DHT22;5379;51.034;7.006;2022-11-15T12:58:45;18.40;98.10
10662;DHT22;5379;51.034;7.006;2022-11-15T13:04:22;18.30;97.90
10662;DHT22;5379;51.034;7.006;2022-11-15T13:06:52;18.30;98.60
10662;DHT22;5379;51.034;7.006;2022-11-15T13:09:51;18.50;98.30
10662;DHT22;5379;51.034;7.006;2022-11-15T13:12:51;16.80;97.30
10662;DHT22;5379;51.034;7.006;2022-11-15T13:15:39;18.50;98.80
10662;DHT22;5379;51.034;7.006;2022-11-15T13:22:18;18.70;99.60
10662;DHT22;5379;51.034;7.006;2022-11-15T13:25:04;18.60;98.50
10662;DHT22;5379;51.034;7.006;2022-11-15T13:27:41;18.40;99.20
10662;DHT22;5379;51.034;7.006;2022-11-15T13:30:14;18.40;99.10
10662;DHT22;5379;51.034;7.006;2022-11-15T13:32:42;18.00;99.60
10662;DHT22;5379;51.034;7.006;2022-11-15T13:35:09;17.80;99.90
10662;DHT22;5379;51.034;7.006;2022-11-15T13:37:38;17.70;99.90
10662;DHT22;5379;51.034;7.006;2022-11-15T13:40:34;17.70;99.90
10662;DHT22;5379;51.034;7.006;2022-11-15T13:43:23;17.60;99.90
10662;DHT22;5379;51.034;7.006;2022-11-15T13:46:07;17.60;99.90
10662;DHT22;5379;51.034;7.006;2022-11-15T13:48:34;17.70;99.90
10662;DHT22;5379;51.034;7.006;2022-11-15T13:51:04;17.80;99.90
10662;DHT22;5379;51.034;7.006;2022-11-15T13:53:33;17.70;99.90
10662;DHT22;5379;51.034;7.006;2022-11-15T13:56:03;17.80;99.90
10662;DHT22;5379;51.034;7.006;2022-11-15T13:58:30;17.80;99.90
10662;DHT22;5379;51.034;7.006;2022-11-15T14:01:00;17.80;99.90
10662;DHT22;5379;51.034;7.006;2022-11-15T14:03:29;17.60;99.90
10662;DHT22;5379;51.034;7.006;2022-11-15T14:06:08;17.60;99.90
10662;DHT22;5379;51.034;7.006;2022-11-15T14:08:39;17.60;99.90
10662;DHT22;5379;51.034;7.006;2022-11-15T14:11:09;17.60;99.90
10662;DHT22;5379;51.034;7.006;2022-11-15T14:13:37;17.50;99.90
10662;DHT22;5379;51.034;7.006;2022-11-15T14:16:18;17.60;99.90
10662;DHT22;5379;51.034;7.006;2022-11-15T14:18:47;17.70;99.90
10662;DHT22;5379;51.034;7.006;2022-11-15T14:21:15;17.60;99.90
10662;DHT22;5379;51.034;7.006;2022-11-15T14:23:44;17.60;99.90
10662;DHT22;5379;51.034;7.006;2022-11-15T14:26:27;17.60;99.90
10662;DHT22;5379;51.034;7.006;2022-11-15T14:28:54;17.70;99.90
10662;DHT22;5379;51.034;7.006;2022-11-15T14:31:21;17.70;99.90
10662;DHT22;5379;51.034;7.006;2022-11-15T14:33:48;17.30;99.90
10662;DHT22;5379;51.034;7.006;2022-11-15T14:36:17;17.10;99.90
10662;DHT22;5379;51.034;7.006;2022-11-15T14:38:47;17.00;99.90
10662;DHT22;5379;51.034;7.006;2022-11-15T14:41:21;16.90;99.90
10662;DHT22;5379;51.034;7.006;2022-11-15T14:43:49;16.90;99.90
10662;DHT22;5379;51.034;7.006;2022-11-15T14:46:16;16.90;99.90
10662;DHT22;5379;51.034;7.006;2022-11-15T14:48:43;16.90;99.90
10662;DHT22;5379;51.034;7.006;2022-11-15T14:51:12;16.80;99.90
10662;DHT22;5379;51.034;7.006;2022-11-15T14:53:40;17.10;99.90
10662;DHT22;5379;51.034;7.006;2022-11-15T14:56:09;17.10;99.90
10662;DHT22;5379;51.034;7.006;2022-11-15T14:58:36;17.20;99.90
10662;DHT22;5379;51.034;7.006;2022-11-15T15:01:12;17.20;99.90
10662;DHT22;5379;51.034;7.006;2022-11-15T15:03:39;17.30;99.90
10662;DHT22;5379;51.034;7.006;2022-11-15T15:06:06;17.30;99.90
10662;DHT22;5379;51.034;7.006;2022-11-15T15:08:34;17.30;99.90
10662;DHT22;5379;51.034;7.006;2022-11-15T15:11:01;17.40;99.90
10662;DHT22;5379;51.034;7.006;2022-11-15T15:13:30;17.40;99.90
10662;DHT22;5379;51.034;7.006;2022-11-15T15:15:57;17.40;99.90
10662;DHT22;5379;51.034;7.006;2022-11-15T15:18:24;17.40;99.90
10662;DHT22;5379;51.034;7.006;2022-11-15T15:20:55;17.60;99.90
10662;DHT22;5379;51.034;7.006;2022-11-15T15:23:23;17.50;99.90
10662;DHT22;5379;51.034;7.006;2022-11-15T15:25:54;17.50;99.90
10662;DHT22;5379;51.034;7.006;2022-11-15T15:28:21;17.60;99.90
10662;DHT22;5379;51.034;7.006;2022-11-15T15:30:50;17.40;99.90
10662;DHT22;5379;51.034;7.006;2022-11-15T15:33:18;17.30;99.90
10662;DHT22;5379;51.034;7.006;2022-11-15T15:35:45;17.40;99.90
10662;DHT22;5379;51.034;7.006;2022-11-15T15:38:12;17.40;99.90
10662;DHT22;5379;51.034;7.006;2022-11-15T15:40:40;17.30;99.90
10662;DHT22;5379;51.034;7.006;2022-11-15T15:43:07;17.30;99.90
10662;DHT22;5379;51.034;7.006;2022-11-15T15:45:36;17.40;99.90
10662;DHT22;5379;51.034;7.006;2022-11-15T15:48:08;17.40;99.90
10662;DHT22;5379;51.034;7.006;2022-11-15T15:50:35;17.50;99.90
10662;DHT22;5379;51.034;7.006;2022-11-15T15:53:03;17.40;99.90
10662;DHT22;5379;51.034;7.006;2022-11-15T15:55:31;17.50;99.90
10662;DHT22;5379;51.034;7.006;2022-11-15T15:57:58;17.40;99.90
10662;DHT22;5379;51.034;7.006;2022-11-15T16:00:25;17.40;99.90
10662;DHT22;5379;51.034;7.006;2022-11-15T16:02:53;17.50;99.90
10662;DHT22;5379;51.034;7.006;2022-11-15T16:05:22;17.50;99.90
10662;DHT22;5379;51.034;7.006;2022-11-15T16:07:49;17.60;99.90
10662;DHT22;5379;51.034;7.006;2022-11-15T16:10:20;17.30;99.90
10662;DHT22;5379;51.034;7.006;2022-11-15T16:12:47;17.30;99.90
10662;DHT22;5379;51.034;7.006;2022-11-15T16:15:14;17.30;99.90
10662;DHT22;5379;51.034;7.006;2022-11-15T16:17:45;17.30;99.90
10662;DHT22;5379;51.034;7.006;2022-11-15T16:20:28;17.20;99.90
10662;DHT22;5379;51.034;7.006;2022-11-15T16:22:55;17.20;99.90
10662;DHT22;5379;51.034;7.006;2022-11-15T16:25:23;17.10;99.90
10662;DHT22;5379;51.034;7.006;2022-11-15T16:27:50;17.20;99.90
10662;DHT22;5379;51.034;7.006;2022-11-15T16:30:19;17.30;99.90
10662;DHT22;5379;51.034;7.006;2022-11-15T16:32:46;17.40;99.90
10662;DHT22;5379;51.034;7.006;2022-11-15T16:35:15;17.40;99.90
10662;DHT22;5379;51.034;7.006;2022-11-15T16:37:44;17.40;99.90
10662;DHT22;5379;51.034;7.006;2022-11-15T16:40:26;17.40;99.90
10662;DHT22;5379;51.034;7.006;2022-11-15T16:42:53;17.50;99.90
10662;DHT22;5379;51.034;7.006;2022-11-15T16:45:21;17.40;99.90
10662;DHT22;5379;51.034;7.006;2022-11-15T16:47:49;17.60;99.90
10662;DHT22;5379;51.034;7.006;2022-11-15T16:50:20;17.50;99.90
10662;DHT22;5379;51.034;7.006;2022-11-15T16:52:51;17.40;99.90
10662;DHT22;5379;51.034;7.006;2022-11-15T16:55:19;17.30;99.90
10662;DHT22;5379;51.034;7.006;2022-11-15T16:57:46;17.20;99.90
10662;DHT22;5379;51.034;7.006;2022-11-15T17:00:14;17.30;99.90
10662;DHT22;5379;51.034;7.006;2022-11-15T17:02:42;17.40;99.90